Terminal Aerodrome Forecast
Issued by NWS Raleigh/Durham, NC

Home | Current Version | Previous Version | Text Only | Print | Product List | Glossary On
Versions: 1 2 3 4 5 6 7 8 9 10 11 12 13 14 15 16 17 18
000
FTUS42 KRAH 291738
TAFFAY
TAF
KFAY 291738Z 2918/3018 VRB04KT P6SM SCT045
     FM300200 VRB03KT P6SM FEW200
     FM300800 VRB03KT 1SM BR VV002
      TEMPO 3009/3013 1/2SM FG VV001
     FM301500 08007KT 5SM BR OVC006=

USA.gov is the U.S. government's official web portal to all federal, state and local government web resources and services.